createdAt,value
2016-05-07T00:00:53.874Z,67.75
2016-05-07T00:01:53.908Z,67.46
2016-05-07T00:02:53.942Z,67.46
2016-05-07T00:03:53.992Z,67.36
2016-05-07T00:04:54.025Z,67.36
2016-05-07T00:05:54.075Z,67.27
2016-05-07T00:06:54.109Z,67.55
2016-05-07T00:07:54.143Z,67.46
2016-05-07T00:08:54.192Z,67.55
2016-05-07T00:09:54.226Z,67.46
2016-05-07T00:10:54.275Z,67.55
2016-05-07T00:11:54.311Z,67.55
2016-05-07T00:12:54.359Z,67.46
2016-05-07T00:13:54.393Z,67.46
2016-05-07T00:14:54.428Z,67.55
2016-05-07T00:15:54.477Z,67.46
2016-05-07T00:16:54.510Z,67.55
2016-05-07T00:17:54.560Z,67.36
2016-05-07T00:18:54.594Z,67.36
2016-05-07T00:19:54.644Z,67.46
2016-05-07T00:20:54.678Z,67.46
2016-05-07T00:21:54.712Z,67.46
2016-05-07T00:22:54.761Z,67.55
2016-05-07T00:23:54.795Z,67.36
2016-05-07T00:24:54.829Z,67.55
2016-05-07T00:25:54.879Z,67.55
2016-05-07T00:26:54.913Z,67.27
2016-05-07T00:27:54.962Z,67.27
2016-05-07T00:28:54.996Z,67.46
2016-05-07T00:29:55.029Z,67.46
2016-05-07T00:30:55.080Z,67.36
2016-05-07T00:31:55.114Z,67.36
2016-05-07T00:32:55.163Z,67.36
2016-05-07T00:33:55.197Z,67.46
2016-05-07T00:34:55.247Z,67.55
2016-05-07T00:35:55.281Z,67.36
2016-05-07T00:36:55.314Z,67.36
2016-05-07T00:37:55.365Z,67.27
2016-05-07T00:38:55.398Z,67.36
2016-05-07T00:39:55.448Z,67.27
2016-05-07T00:40:55.481Z,67.36
2016-05-07T00:41:55.969Z,67.36
2016-05-07T00:42:55.564Z,67.36
2016-05-07T00:43:55.599Z,67.36
2016-05-07T00:44:55.649Z,67.33
2016-05-07T00:45:55.683Z,67.36
2016-05-07T00:46:55.732Z,67.36
2016-05-07T00:47:55.766Z,67.52
2016-05-07T00:48:55.816Z,67.46
2016-05-07T00:49:55.849Z,67.43
2016-05-07T00:50:55.883Z,67.46
2016-05-07T00:51:55.933Z,67.33
2016-05-07T00:52:55.966Z,67.46
2016-05-07T00:53:56.016Z,67.46
2016-05-07T00:54:56.051Z,67.36
2016-05-07T00:55:56.085Z,67.27
2016-05-07T00:56:56.697Z,67.36
2016-05-07T00:57:56.167Z,67.36
2016-05-07T00:58:56.202Z,67.43
2016-05-07T00:59:56.251Z,67.43
2016-05-07T01:00:56.301Z,67.46
2016-05-07T01:01:56.334Z,67.33
2016-05-07T01:02:56.368Z,67.33
2016-05-07T01:03:56.418Z,67.43
2016-05-07T01:04:56.453Z,67.36
2016-05-07T01:05:56.502Z,67.36
2016-05-07T01:06:56.536Z,67.33
2016-05-07T01:07:56.586Z,67.33
2016-05-07T01:08:56.619Z,67.43
2016-05-07T01:09:56.653Z,67.43
2016-05-07T01:10:56.687Z,67.46
2016-05-07T01:11:57.065Z,67.46
2016-05-07T01:12:56.786Z,67.43
2016-05-07T01:13:56.820Z,67.33
2016-05-07T01:14:56.855Z,67.43
2016-05-07T01:15:56.903Z,67.46
2016-05-07T01:16:56.938Z,67.52
2016-05-07T01:17:56.972Z,67.46
2016-05-07T01:18:57.021Z,67.52
2016-05-07T01:19:57.055Z,67.46
2016-05-07T01:20:57.104Z,67.33
2016-05-07T01:21:57.139Z,67.46
2016-05-07T01:22:57.172Z,67.46
2016-05-07T01:23:57.222Z,67.36
2016-05-07T01:24:57.256Z,67.43
2016-05-07T01:25:57.306Z,67.43
2016-05-07T01:26:57.776Z,67.43
2016-05-07T01:27:57.390Z,67.46
2016-05-07T01:28:57.424Z,67.46
2016-05-07T01:29:57.457Z,67.52
2016-05-07T01:30:57.506Z,67.43
2016-05-07T01:31:57.541Z,67.46
2016-05-07T01:32:57.574Z,67.43
2016-05-07T01:33:57.624Z,67.33
2016-05-07T01:34:57.659Z,67.43
2016-05-07T01:35:57.707Z,67.46
2016-05-07T01:36:57.742Z,67.14
2016-05-07T01:37:57.791Z,67.55
2016-05-07T01:38:57.825Z,67.23
2016-05-07T01:39:57.859Z,67.36
2016-05-07T01:40:57.899Z,67.43
2016-05-07T01:41:57.951Z,67.46
2016-05-07T01:42:58.005Z,67.14
2016-05-07T01:43:58.031Z,67.14
2016-05-07T01:44:58.069Z,67.33
2016-05-07T01:45:58.103Z,67.43
2016-05-07T01:46:58.152Z,67.33
2016-05-07T01:47:58.187Z,67.43
2016-05-07T01:48:58.220Z,67.14
2016-05-07T01:49:58.269Z,67.14
2016-05-07T01:50:58.304Z,67.14
2016-05-07T01:51:58.353Z,67.14
2016-05-07T01:52:58.386Z,67.14
2016-05-07T01:53:58.437Z,67.23
2016-05-07T01:54:58.470Z,67.23
2016-05-07T01:55:58.505Z,67.23
2016-05-07T01:56:58.554Z,67.23
2016-05-07T01:57:58.588Z,67.14
2016-05-07T01:58:58.638Z,67.33
2016-05-07T01:59:58.672Z,67.33
2016-05-07T02:00:58.705Z,67.27
2016-05-07T02:01:58.755Z,67.23
2016-05-07T02:02:58.789Z,67.14
2016-05-07T02:03:58.838Z,67.23
2016-05-07T02:04:58.872Z,67.23
2016-05-07T02:05:58.907Z,67.23
2016-05-07T02:06:58.956Z,67.33
2016-05-07T02:07:59.005Z,67.33
2016-05-07T02:08:59.040Z,67.14
2016-05-07T02:09:59.073Z,67.33
2016-05-07T02:10:59.107Z,67.23
2016-05-07T02:11:59.157Z,67.33
2016-05-07T02:12:59.191Z,67.23
2016-05-07T02:13:59.240Z,67.33
2016-05-07T02:14:59.274Z,67.43
2016-05-07T02:15:59.323Z,67.23
2016-05-07T02:16:59.358Z,67.23
2016-05-07T02:17:59.392Z,67.23
2016-05-07T02:18:59.442Z,67.33
2016-05-07T02:19:59.475Z,67.23
2016-05-07T02:20:59.525Z,67.33
2016-05-07T02:21:59.558Z,67.23
2016-05-07T02:22:59.624Z,67.23
2016-05-07T02:23:59.642Z,67.23
2016-05-07T02:24:59.679Z,67.33
2016-05-07T02:25:59.713Z,67.04
2016-05-07T02:26:59.762Z,67.33
2016-05-07T02:27:59.797Z,67.04
2016-05-07T02:28:59.846Z,67.43
2016-05-07T02:29:59.881Z,67.23
2016-05-07T02:30:59.930Z,67.43
2016-05-07T02:31:59.963Z,67.43
2016-05-07T02:32:59.997Z,67.33
2016-05-07T02:34:00.048Z,67.43
2016-05-07T02:35:00.081Z,67.43
2016-05-07T02:36:00.131Z,67.23
2016-05-07T02:37:00.164Z,67.43
2016-05-07T02:38:00.198Z,67.43
2016-05-07T02:39:00.248Z,67.04
2016-05-07T02:40:00.283Z,67.33
2016-05-07T02:41:00.332Z,67.14
2016-05-07T02:42:00.366Z,67.43
2016-05-07T02:43:00.399Z,67.23
2016-05-07T02:44:00.449Z,67.33
2016-05-07T02:45:00.483Z,67.23
2016-05-07T02:46:00.533Z,67.33
2016-05-07T02:47:00.566Z,67.33
2016-05-07T02:48:00.601Z,67.23
2016-05-07T02:49:00.649Z,67.33
2016-05-07T02:50:00.684Z,67.43
2016-05-07T02:51:00.734Z,67.23
2016-05-07T02:52:00.768Z,67.33
2016-05-07T02:53:00.801Z,67.33
2016-05-07T02:54:00.851Z,67.43
2016-05-07T02:55:00.885Z,67.14
2016-05-07T02:56:00.934Z,67.23
2016-05-07T02:57:00.984Z,67.23
2016-05-07T02:58:01.018Z,67.23
2016-05-07T02:59:01.051Z,67.43
2016-05-07T03:00:01.086Z,67.23
2016-05-07T03:01:01.136Z,67.23
2016-05-07T03:02:01.169Z,67.33
2016-05-07T03:03:01.219Z,67.23
2016-05-07T03:04:01.253Z,67.23
2016-05-07T03:05:01.287Z,67.14
2016-05-07T03:06:01.336Z,67.33
2016-05-07T03:07:01.370Z,67.04
2016-05-07T03:08:01.404Z,67.04
2016-05-07T03:09:01.453Z,67.23
2016-05-07T03:10:01.488Z,67.23
2016-05-07T03:11:01.538Z,67.62
2016-05-07T03:12:01.571Z,67.62
2016-05-07T03:13:01.621Z,67.04
2016-05-07T03:14:01.654Z,67.23
2016-05-07T03:15:01.689Z,67.43
2016-05-07T03:16:01.738Z,67.62
2016-05-07T03:17:01.772Z,67.71
2016-05-07T03:18:01.821Z,67.71
2016-05-07T03:19:01.855Z,67.23
2016-05-07T03:20:01.889Z,67.52
2016-05-07T03:21:01.940Z,67.71
2016-05-07T03:22:01.973Z,67.43
2016-05-07T03:23:02.023Z,67.23
2016-05-07T03:24:02.056Z,67.71
2016-05-07T03:25:02.107Z,67.62
2016-05-07T03:26:02.140Z,67.52
2016-05-07T03:27:02.487Z,67.52
2016-05-07T03:28:02.223Z,67.62
2016-05-07T03:29:02.257Z,67.52
2016-05-07T03:30:02.306Z,67.62
2016-05-07T03:31:02.342Z,67.62
2016-05-07T03:32:02.375Z,67.62
2016-05-07T03:33:02.425Z,67.52
2016-05-07T03:34:02.458Z,67.65
2016-05-07T03:35:02.509Z,67.62
2016-05-07T03:36:02.542Z,67.65
2016-05-07T03:37:02.576Z,67.71
2016-05-07T03:38:02.625Z,67.62
2016-05-07T03:39:02.659Z,67.71
2016-05-07T03:40:02.708Z,67.71
2016-05-07T03:41:02.744Z,67.62
2016-05-07T03:42:02.777Z,67.62
2016-05-07T03:43:02.826Z,67.62
2016-05-07T03:44:02.860Z,67.52
2016-05-07T03:45:02.910Z,67.52
2016-05-07T03:46:02.944Z,67.62
2016-05-07T03:47:02.978Z,67.52
2016-05-07T03:48:03.027Z,67.75
2016-05-07T03:49:03.061Z,67.62
2016-05-07T03:50:03.111Z,67.65
2016-05-07T03:51:03.145Z,67.55
2016-05-07T03:52:03.194Z,67.71
2016-05-07T03:53:03.228Z,67.55
2016-05-07T03:54:03.262Z,67.65
2016-05-07T03:55:03.312Z,67.65
2016-05-07T03:56:03.345Z,67.71
2016-05-07T03:57:03.396Z,67.65
2016-05-07T03:58:03.429Z,67.46
2016-05-07T03:59:03.463Z,67.81
2016-05-07T04:00:03.512Z,67.94
2016-05-07T04:01:03.547Z,67.65
2016-05-07T04:02:03.596Z,67.81
2016-05-07T04:03:03.630Z,67.55
2016-05-07T04:04:03.664Z,67.75
2016-05-07T04:05:03.714Z,67.62
2016-05-07T04:06:03.748Z,67.62
2016-05-07T04:07:03.797Z,67.52
2016-05-07T04:08:03.831Z,67.62
2016-05-07T04:09:03.881Z,67.62
2016-05-07T04:10:03.914Z,67.62
2016-05-07T04:11:03.964Z,67.62
2016-05-07T04:12:03.998Z,67.71
2016-05-07T04:13:04.032Z,67.81
2016-05-07T04:14:04.082Z,67.65
2016-05-07T04:15:04.116Z,67.62
2016-05-07T04:16:04.149Z,67.65
2016-05-07T04:17:04.199Z,67.62
2016-05-07T04:18:04.233Z,67.62
2016-05-07T04:19:04.283Z,67.62
2016-05-07T04:20:04.316Z,67.62
2016-05-07T04:21:04.351Z,67.81
2016-05-07T04:22:04.399Z,67.62
2016-05-07T04:23:04.449Z,67.65
2016-05-07T04:24:04.484Z,67.85
2016-05-07T04:25:04.518Z,67.71
2016-05-07T04:26:04.567Z,67.81
2016-05-07T04:27:04.601Z,67.65
2016-05-07T04:28:04.635Z,67.75
2016-05-07T04:29:04.684Z,67.71
2016-05-07T04:30:04.718Z,67.85
2016-05-07T04:31:04.768Z,67.81
2016-05-07T04:32:04.801Z,67.75
2016-05-07T04:33:04.851Z,67.55
2016-05-07T04:34:04.886Z,67.75
2016-05-07T04:35:04.919Z,67.85
2016-05-07T04:36:04.970Z,67.75
2016-05-07T04:37:05.003Z,67.94
2016-05-07T04:38:05.052Z,67.94
2016-05-07T04:39:05.087Z,67.85
2016-05-07T04:40:05.120Z,67.91
2016-05-07T04:41:05.169Z,67.75
2016-05-07T04:42:05.203Z,67.75
2016-05-07T04:43:05.239Z,68.23
2016-05-07T04:44:05.288Z,67.94
2016-05-07T04:45:05.321Z,67.94
2016-05-07T04:46:05.371Z,67.75
2016-05-07T04:47:05.405Z,68.13
2016-05-07T04:48:05.439Z,67.75
2016-05-07T04:49:05.488Z,67.75
2016-05-07T04:50:05.522Z,67.94
2016-05-07T04:51:05.572Z,67.94
2016-05-07T04:52:05.605Z,67.75
2016-05-07T04:53:05.655Z,68.04
2016-05-07T04:54:05.689Z,67.94
2016-05-07T04:55:05.723Z,67.85
2016-05-07T04:56:05.773Z,67.85
2016-05-07T04:57:05.807Z,68.04
2016-05-07T04:58:05.856Z,67.94
2016-05-07T04:59:05.890Z,67.85
2016-05-07T05:00:05.940Z,67.94
2016-05-07T05:01:05.974Z,67.94
2016-05-07T05:02:06.007Z,67.85
2016-05-07T05:03:06.057Z,67.85
2016-05-07T05:04:06.091Z,67.85
2016-05-07T05:05:06.141Z,67.85
2016-05-07T05:06:06.175Z,67.94
2016-05-07T05:07:06.208Z,67.94
2016-05-07T05:08:06.258Z,67.85
2016-05-07T05:09:06.292Z,67.94
2016-05-07T05:10:06.342Z,67.85
2016-05-07T05:11:06.376Z,67.85
2016-05-07T05:12:06.409Z,67.94
2016-05-07T05:13:06.459Z,67.85
2016-05-07T05:14:06.493Z,67.94
2016-05-07T05:15:06.542Z,67.94
2016-05-07T05:16:06.577Z,67.94
2016-05-07T05:17:06.627Z,67.94
2016-05-07T05:18:06.660Z,67.94
2016-05-07T05:19:06.710Z,67.94
2016-05-07T05:20:06.744Z,67.85
2016-05-07T05:21:06.777Z,67.94
2016-05-07T05:22:06.828Z,67.94
2016-05-07T05:23:06.861Z,67.94
2016-05-07T05:24:06.910Z,67.94
2016-05-07T05:25:06.944Z,68.13
2016-05-07T05:26:06.979Z,67.94
2016-05-07T05:27:07.028Z,67.94
2016-05-07T05:28:07.062Z,68.04
2016-05-07T05:29:07.096Z,67.94
2016-05-07T05:30:07.146Z,68.04
2016-05-07T05:31:07.179Z,68.04
2016-05-07T05:32:07.229Z,68.04
2016-05-07T05:33:07.263Z,67.94
2016-05-07T05:34:07.312Z,67.94
2016-05-07T05:35:07.346Z,68.04
2016-05-07T05:36:07.381Z,68.04
2016-05-07T05:37:07.430Z,67.85
2016-05-07T05:38:07.464Z,68.04
2016-05-07T05:39:07.514Z,68.04
2016-05-07T05:40:07.547Z,68.04
2016-05-07T05:41:07.582Z,68.04
2016-05-07T05:42:07.631Z,67.94
2016-05-07T05:43:07.664Z,68.04
2016-05-07T05:44:07.715Z,68.04
2016-05-07T05:45:07.748Z,68.04
2016-05-07T05:46:07.798Z,67.75
2016-05-07T05:47:07.832Z,67.94
2016-05-07T05:48:07.866Z,67.75
2016-05-07T05:49:07.916Z,68.04
2016-05-07T05:50:07.949Z,68.04
2016-05-07T05:51:07.999Z,67.75
2016-05-07T05:52:08.033Z,67.85
2016-05-07T05:54:08.116Z,67.75
2016-05-07T05:55:08.166Z,67.75
2016-05-07T05:56:08.200Z,68.13
2016-05-07T05:57:08.234Z,67.75
2016-05-07T05:58:08.268Z,67.85
2016-05-07T05:59:08.318Z,67.75
2016-05-07T06:00:08.352Z,67.85
2016-05-07T06:01:08.401Z,67.85
2016-05-07T06:02:08.435Z,67.85
2016-05-07T06:03:08.484Z,67.85
2016-05-07T06:04:08.518Z,67.94
2016-05-07T06:05:08.568Z,67.85
2016-05-07T06:06:08.602Z,67.94
2016-05-07T06:07:08.636Z,67.85
2016-05-07T06:08:08.685Z,67.94
2016-05-07T06:09:08.735Z,67.94
2016-05-07T06:10:08.770Z,67.85
2016-05-07T06:11:08.803Z,67.94
2016-05-07T06:12:08.992Z,67.94
2016-05-07T06:13:08.886Z,67.85
2016-05-07T06:14:08.920Z,67.94
2016-05-07T06:15:08.970Z,67.94
2016-05-07T06:16:09.004Z,67.94
2016-05-07T06:17:09.053Z,67.75
2016-05-07T06:18:09.087Z,67.94
2016-05-07T06:19:09.122Z,67.85
2016-05-07T06:20:09.172Z,68.13
2016-05-07T06:21:09.205Z,67.85
2016-05-07T06:22:09.255Z,68.04
2016-05-07T06:23:09.288Z,67.85
2016-05-07T06:24:09.322Z,67.85
2016-05-07T06:25:09.372Z,67.75
2016-05-07T06:26:09.405Z,67.94
2016-05-07T06:27:09.971Z,67.85
2016-05-07T06:28:09.489Z,67.94
2016-05-07T06:29:09.538Z,67.94
2016-05-07T06:30:09.573Z,67.94
2016-05-07T06:31:09.606Z,68.04
2016-05-07T06:32:09.656Z,67.94
2016-05-07T06:33:09.707Z,67.85
2016-05-07T06:34:09.740Z,67.85
2016-05-07T06:35:09.773Z,67.94
2016-05-07T06:36:09.824Z,67.94
2016-05-07T06:37:09.857Z,67.94
2016-05-07T06:38:09.891Z,68.23
2016-05-07T06:39:09.940Z,67.94
2016-05-07T06:40:09.975Z,68.23
2016-05-07T06:41:10.024Z,68.23
2016-05-07T06:42:10.058Z,68.23
2016-05-07T06:43:10.108Z,68.23
2016-05-07T06:44:10.141Z,68.33
2016-05-07T06:45:10.175Z,68.23
2016-05-07T06:46:10.225Z,68.13
2016-05-07T06:47:10.259Z,68.13
2016-05-07T06:48:10.309Z,68.13
2016-05-07T06:49:10.342Z,68.04
2016-05-07T06:50:10.377Z,68.04
2016-05-07T06:51:10.426Z,68.13
2016-05-07T06:52:10.460Z,68.04
2016-05-07T06:53:10.510Z,67.94
2016-05-07T06:54:10.544Z,68.04
2016-05-07T06:55:10.593Z,68.23
2016-05-07T06:56:10.627Z,68.13
2016-05-07T06:57:11.098Z,68.23
2016-05-07T06:58:10.711Z,68.33
2016-05-07T06:59:10.760Z,68.33
2016-05-07T07:00:10.793Z,68.62
2016-05-07T07:01:10.827Z,68.71
2016-05-07T07:02:10.877Z,68.52
2016-05-07T07:03:10.912Z,68.52
2016-05-07T07:04:10.946Z,68.52
2016-05-07T07:05:10.995Z,68.43
2016-05-07T07:06:11.029Z,68.52
2016-05-07T07:07:11.062Z,68.43
2016-05-07T07:08:11.129Z,68.33
2016-05-07T07:09:11.162Z,68.33
2016-05-07T07:10:11.195Z,68.52
2016-05-07T07:11:11.230Z,68.52
2016-05-07T07:12:11.279Z,68.23
2016-05-07T07:13:11.314Z,68.43
2016-05-07T07:14:11.362Z,68.62
2016-05-07T07:15:11.397Z,68.43
2016-05-07T07:16:11.446Z,68.23
2016-05-07T07:17:11.481Z,68.33
2016-05-07T07:18:11.515Z,68.62
2016-05-07T07:19:11.564Z,68.43
2016-05-07T07:20:11.597Z,68.43
2016-05-07T07:21:11.647Z,68.62
2016-05-07T07:22:11.681Z,68.52
2016-05-07T07:23:11.731Z,69
2016-05-07T07:24:11.765Z,68.71
2016-05-07T07:25:11.799Z,68.62
2016-05-07T07:26:11.849Z,69.1
2016-05-07T07:27:11.882Z,69.23
2016-05-07T07:28:11.932Z,69
2016-05-07T07:29:11.965Z,69.04
2016-05-07T07:30:12.000Z,68.91
2016-05-07T07:31:12.050Z,69.23
2016-05-07T07:32:12.083Z,69.13
2016-05-07T07:33:12.132Z,69.2
2016-05-07T07:34:12.166Z,69.04
2016-05-07T07:35:12.216Z,69.13
2016-05-07T07:36:12.251Z,69.13
2016-05-07T07:37:12.285Z,69.04
2016-05-07T07:38:12.334Z,69.32
2016-05-07T07:39:12.368Z,68.94
2016-05-07T07:40:12.417Z,69.13
2016-05-07T07:41:12.451Z,69.23
2016-05-07T07:42:12.485Z,69.13
2016-05-07T07:43:12.535Z,69.04
2016-05-07T07:44:12.584Z,68.94
2016-05-07T07:45:12.618Z,69.23
2016-05-07T07:46:12.652Z,69.42
2016-05-07T07:47:12.701Z,69.52
2016-05-07T07:48:12.736Z,69.52
2016-05-07T07:49:12.786Z,69.52
2016-05-07T07:50:12.819Z,69.62
2016-05-07T07:51:12.869Z,69.42
2016-05-07T07:52:12.902Z,69.62
2016-05-07T07:53:12.937Z,69.81
2016-05-07T07:54:12.986Z,69.52
2016-05-07T07:55:13.020Z,70
2016-05-07T07:56:13.055Z,70.1
2016-05-07T07:57:13.103Z,70.1
2016-05-07T07:58:13.138Z,70.1
2016-05-07T07:59:13.187Z,69.81
2016-05-07T08:00:13.221Z,69.81
2016-05-07T08:01:13.271Z,69.9
2016-05-07T08:02:13.305Z,69.9
2016-05-07T08:03:13.354Z,70.1
2016-05-07T08:04:13.388Z,69.81
2016-05-07T08:05:13.437Z,69.81
2016-05-07T08:06:13.472Z,69.9
2016-05-07T08:07:13.505Z,69.9
2016-05-07T08:08:13.555Z,69.62
2016-05-07T08:09:13.589Z,69.81
2016-05-07T08:10:13.638Z,69.52
2016-05-07T08:11:13.673Z,69.81
2016-05-07T08:12:13.706Z,69.81
2016-05-07T08:13:13.756Z,69.71
2016-05-07T08:14:13.790Z,69.52
2016-05-07T08:15:13.839Z,68.94
2016-05-07T08:16:13.874Z,69.23
2016-05-07T08:17:13.923Z,69
2016-05-07T08:18:13.956Z,69.1
2016-05-07T08:19:14.006Z,68.91
2016-05-07T08:20:14.040Z,68.71
2016-05-07T08:21:14.075Z,68.62
2016-05-07T08:22:14.125Z,68.52
2016-05-07T08:23:14.158Z,68.13
2016-05-07T08:24:14.207Z,68.13
2016-05-07T08:25:14.241Z,67.85
2016-05-07T08:26:14.292Z,67.94
2016-05-07T08:27:14.325Z,67.65
2016-05-07T08:28:14.358Z,67.07
2016-05-07T08:29:14.413Z,67.07
2016-05-07T08:30:14.489Z,67.55
2016-05-07T08:31:14.583Z,67.46
2016-05-07T08:32:14.660Z,67.14
2016-05-07T08:33:14.737Z,67.52
2016-05-07T08:34:14.826Z,67.14
2016-05-07T08:35:14.875Z,67.04
2016-05-07T08:36:14.941Z,66.75
2016-05-07T08:37:14.990Z,66.56
2016-05-07T08:38:15.054Z,66.46
2016-05-07T08:39:15.102Z,66.66
2016-05-07T08:40:15.142Z,66.56
2016-05-07T08:41:15.197Z,66.56
2016-05-07T08:42:15.253Z,66.46
2016-05-07T08:43:15.292Z,66.46
2016-05-07T08:44:15.332Z,66.56
2016-05-07T08:45:15.368Z,65.88
2016-05-07T08:46:15.420Z,65.98
2016-05-07T08:47:15.455Z,65.98
2016-05-07T08:48:15.490Z,65.5
2016-05-07T08:49:15.543Z,65.78
2016-05-07T08:50:15.577Z,65.5
2016-05-07T08:51:15.627Z,65.59
2016-05-07T08:52:15.663Z,65.3
2016-05-07T08:53:15.697Z,65.4
2016-05-07T08:54:15.747Z,65.2
2016-05-07T08:55:15.781Z,65.3
2016-05-07T08:56:15.832Z,65.4
2016-05-07T08:57:15.866Z,65.4
2016-05-07T08:58:15.900Z,65.5
2016-05-07T08:59:15.950Z,65.11
2016-05-07T09:00:15.983Z,64.72
2016-05-07T09:01:16.033Z,64.92
2016-05-07T09:02:16.083Z,65.11
2016-05-07T09:03:16.116Z,64.82
2016-05-07T09:04:16.152Z,64.43
2016-05-07T09:05:16.185Z,64.82
2016-05-07T09:06:16.235Z,65.3
2016-05-07T09:07:16.268Z,64.53
2016-05-07T09:08:16.302Z,64.43
2016-05-07T09:09:16.352Z,64.53
2016-05-07T09:10:16.386Z,64.43
2016-05-07T09:11:16.435Z,64.34
2016-05-07T09:12:16.470Z,64.05
2016-05-07T09:13:16.503Z,64.34
2016-05-07T09:14:16.554Z,64.15
2016-05-07T09:15:16.587Z,64.34
2016-05-07T09:16:16.637Z,63.95
2016-05-07T09:17:16.670Z,64.05
2016-05-07T09:18:16.704Z,63.85
2016-05-07T09:19:16.754Z,63.85
2016-05-07T09:20:16.788Z,64.05
2016-05-07T09:21:16.837Z,63.85
2016-05-07T09:22:16.871Z,63.76
2016-05-07T09:23:16.906Z,64.15
2016-05-07T09:24:16.955Z,64.05
2016-05-07T09:25:16.989Z,63.67
2016-05-07T09:26:17.039Z,63.67
2016-05-07T09:27:17.072Z,63.67
2016-05-07T09:28:17.106Z,63.67
2016-05-07T09:29:17.156Z,63.47
2016-05-07T09:30:17.189Z,63.57
2016-05-07T09:31:17.224Z,63.57
2016-05-07T09:32:17.273Z,63.28
2016-05-07T09:33:17.322Z,63.76
2016-05-07T09:34:17.357Z,63.09
2016-05-07T09:35:17.391Z,63.18
2016-05-07T09:36:17.441Z,63.85
2016-05-07T09:37:17.474Z,63.18
2016-05-07T09:38:17.508Z,63.76
2016-05-07T09:39:17.557Z,63.85
2016-05-07T09:40:17.591Z,63.95
2016-05-07T09:41:17.641Z,62.89
2016-05-07T09:42:17.676Z,63.95
2016-05-07T09:43:17.709Z,63.85
2016-05-07T09:44:17.759Z,63.28
2016-05-07T09:45:17.793Z,63.28
2016-05-07T09:46:17.843Z,63.47
2016-05-07T09:47:17.876Z,63.37
2016-05-07T09:48:17.910Z,63.57
2016-05-07T09:49:17.959Z,63.76
2016-05-07T09:50:17.993Z,63.18
2016-05-07T09:51:18.043Z,63.85
2016-05-07T09:52:18.078Z,63.85
2016-05-07T09:53:18.111Z,63.28
2016-05-07T09:54:18.161Z,63.85
2016-05-07T09:55:18.194Z,63.28
2016-05-07T09:56:18.245Z,63.18
2016-05-07T09:57:18.278Z,63.09
2016-05-07T09:58:18.312Z,63.18
2016-05-07T09:59:18.361Z,63.76
2016-05-07T10:00:18.395Z,63.18
2016-05-07T10:01:18.445Z,63.67
2016-05-07T10:02:18.480Z,64.05
2016-05-07T10:03:18.528Z,63.85
2016-05-07T10:04:18.563Z,63.85
2016-05-07T10:05:18.597Z,63.57
2016-05-07T10:06:18.646Z,63.28
2016-05-07T10:07:18.680Z,63.47
2016-05-07T10:08:18.730Z,63.28
2016-05-07T10:09:18.763Z,63.28
2016-05-07T10:10:18.797Z,63.37
2016-05-07T10:11:18.847Z,63.47
2016-05-07T10:12:19.334Z,63.37
2016-05-07T10:13:18.915Z,63.28
2016-05-07T10:14:18.965Z,63.18
2016-05-07T10:15:18.998Z,63.18
2016-05-07T10:16:19.048Z,63.09
2016-05-07T10:17:19.082Z,63.28
2016-05-07T10:18:19.116Z,63.37
2016-05-07T10:19:19.165Z,63.37
2016-05-07T10:20:19.199Z,62.79
2016-05-07T10:21:19.249Z,63.09
2016-05-07T10:22:19.283Z,63.28
2016-05-07T10:23:19.331Z,63.18
2016-05-07T10:24:19.366Z,63.28
2016-05-07T10:25:19.401Z,63.09
2016-05-07T10:26:19.450Z,62.99
2016-05-07T10:27:19.483Z,62.89
2016-05-07T10:28:19.529Z,62.7
2016-05-07T10:29:19.562Z,62.7
2016-05-07T10:30:19.611Z,62.79
2016-05-07T10:31:19.646Z,62.89
2016-05-07T10:32:19.695Z,62.6
2016-05-07T10:33:19.730Z,62.7
2016-05-07T10:34:19.763Z,62.7
2016-05-07T10:35:19.814Z,62.7
2016-05-07T10:36:19.847Z,62.51
2016-05-07T10:37:19.896Z,62.51
2016-05-07T10:38:19.931Z,62.6
2016-05-07T10:39:19.964Z,62.51
2016-05-07T10:40:20.013Z,62.6
2016-05-07T10:41:20.047Z,62.41
2016-05-07T10:42:20.097Z,62.41
2016-05-07T10:43:20.132Z,62.51
2016-05-07T10:44:20.180Z,62.31
2016-05-07T10:45:20.215Z,62.22
2016-05-07T10:46:20.249Z,62.22
2016-05-07T10:47:20.298Z,62.12
2016-05-07T10:48:20.332Z,62.12
2016-05-07T10:49:20.366Z,62.12
2016-05-07T10:50:20.416Z,61.74
2016-05-07T10:51:20.449Z,61.93
2016-05-07T10:52:20.499Z,61.64
2016-05-07T10:53:20.534Z,61.93
2016-05-07T10:54:20.567Z,61.93
2016-05-07T10:55:20.617Z,62.02
2016-05-07T10:56:20.650Z,62.02
2016-05-07T10:57:20.701Z,62.02
2016-05-07T10:58:20.734Z,62.02
2016-05-07T10:59:20.767Z,61.64
2016-05-07T11:00:20.818Z,61.83
2016-05-07T11:01:20.851Z,61.74
2016-05-07T11:02:20.900Z,61.74
2016-05-07T11:03:20.935Z,61.83
2016-05-07T11:04:20.970Z,61.83
2016-05-07T11:05:21.019Z,61.93
2016-05-07T11:06:21.068Z,61.64
2016-05-07T11:07:21.103Z,61.83
2016-05-07T11:08:21.136Z,61.83
2016-05-07T11:09:21.201Z,61.83
2016-05-07T11:10:21.219Z,61.64
2016-05-07T11:11:21.269Z,61.93
2016-05-07T11:12:21.303Z,61.83
2016-05-07T11:13:21.337Z,62.02
2016-05-07T11:14:21.386Z,62.05
2016-05-07T11:15:21.421Z,61.93
2016-05-07T11:16:21.470Z,62.02
2016-05-07T11:17:21.504Z,62.12
2016-05-07T11:18:21.538Z,61.74
2016-05-07T11:19:21.588Z,61.64
2016-05-07T11:20:21.621Z,61.64
2016-05-07T11:21:21.671Z,61.93
2016-05-07T11:22:21.704Z,61.64
2016-05-07T11:23:21.739Z,61.54
2016-05-07T11:24:21.788Z,61.64
2016-05-07T11:25:21.823Z,61.74
2016-05-07T11:26:21.872Z,61.74
2016-05-07T11:27:21.906Z,61.64
2016-05-07T11:28:21.956Z,61.64
2016-05-07T11:29:21.989Z,61.74
2016-05-07T11:30:22.023Z,61.74
2016-05-07T11:31:22.073Z,61.44
2016-05-07T11:32:22.106Z,61.64
2016-05-07T11:33:22.157Z,61.44
2016-05-07T11:34:22.190Z,61.83
2016-05-07T11:35:22.225Z,61.64
2016-05-07T11:36:22.274Z,61.64
2016-05-07T11:37:22.307Z,61.57
2016-05-07T11:38:22.358Z,61.77
2016-05-07T11:39:22.391Z,61.64
2016-05-07T11:40:22.425Z,61.64
2016-05-07T11:41:22.474Z,61.83
2016-05-07T11:42:22.509Z,61.67
2016-05-07T11:43:22.558Z,61.54
2016-05-07T11:44:22.591Z,61.77
2016-05-07T11:45:22.627Z,61.67
2016-05-07T11:46:22.676Z,61.64
2016-05-07T11:47:22.710Z,61.64
2016-05-07T11:48:22.759Z,61.54
2016-05-07T11:49:22.793Z,61.74
2016-05-07T11:50:22.827Z,61.67
2016-05-07T11:51:22.877Z,61.86
2016-05-07T11:52:22.910Z,61.64
2016-05-07T11:53:22.960Z,61.67
2016-05-07T11:54:23.010Z,61.57
2016-05-07T11:55:23.043Z,61.77
2016-05-07T11:56:23.078Z,61.47
2016-05-07T11:57:23.126Z,61.77
2016-05-07T11:58:23.162Z,61.57
2016-05-07T11:59:23.195Z,61.57
2016-05-07T12:00:23.245Z,61.57
2016-05-07T12:01:23.278Z,61.86
2016-05-07T12:02:23.328Z,61.77
2016-05-07T12:03:23.362Z,61.67
2016-05-07T12:04:23.395Z,61.77
2016-05-07T12:05:23.445Z,61.67
2016-05-07T12:06:23.480Z,61.57
2016-05-07T12:07:23.514Z,61.67
2016-05-07T12:08:23.563Z,61.86
2016-05-07T12:09:23.597Z,61.77
2016-05-07T12:10:23.647Z,61.57
2016-05-07T12:11:23.680Z,61.67
2016-05-07T12:12:23.917Z,61.86
2016-05-07T12:13:23.764Z,61.67
2016-05-07T12:14:23.813Z,61.77
2016-05-07T12:15:23.847Z,61.47
2016-05-07T12:16:23.882Z,61.77
2016-05-07T12:17:23.930Z,61.67
2016-05-07T12:18:23.965Z,61.86
2016-05-07T12:19:24.015Z,61.67
2016-05-07T12:20:24.049Z,61.57
2016-05-07T12:21:24.082Z,61.57
2016-05-07T12:22:24.132Z,61.67
2016-05-07T12:23:24.166Z,61.67
2016-05-07T12:24:24.215Z,61.67
2016-05-07T12:25:24.249Z,61.67
2016-05-07T12:26:24.283Z,61.67
2016-05-07T12:27:24.333Z,61.67
2016-05-07T12:28:24.382Z,61.77
2016-05-07T12:29:24.417Z,61.57
2016-05-07T12:30:24.450Z,61.67
2016-05-07T12:31:24.500Z,61.77
2016-05-07T12:32:24.534Z,62.05
2016-05-07T12:33:24.567Z,61.28
2016-05-07T12:34:24.618Z,61.28
2016-05-07T12:35:24.650Z,61.28
2016-05-07T12:36:24.701Z,61.19
2016-05-07T12:37:24.734Z,61.77
2016-05-07T12:38:24.784Z,61.38
2016-05-07T12:39:24.818Z,61.47
2016-05-07T12:40:24.853Z,61.47
2016-05-07T12:41:24.902Z,61.28
2016-05-07T12:42:24.936Z,60.99
2016-05-07T12:43:24.985Z,60.99
2016-05-07T12:44:25.019Z,61.09
2016-05-07T12:45:25.069Z,60.89
2016-05-07T12:46:25.103Z,60.8
2016-05-07T12:47:25.136Z,60.89
2016-05-07T12:48:25.186Z,60.8
2016-05-07T12:49:25.221Z,60.8
2016-05-07T12:50:25.269Z,60.61
2016-05-07T12:51:25.304Z,60.13
2016-05-07T12:52:25.337Z,60.41
2016-05-07T12:53:25.387Z,60.61
2016-05-07T12:54:25.420Z,60.31
2016-05-07T12:55:25.471Z,60.31
2016-05-07T12:56:25.504Z,60.31